Time;durP1;ratioP1;P1;durP2;ratioP2;P2;SDS_P1;SDS_P2;PMS_P1;PMS_P2;Temp;Humidity;BMP_temperature;BMP_pressure;BME280_temperature;BME280_humidity;BME280_pressure;Samples;Min_cycle;Max_cycle;Signal;HPM_P1;HPM_P2
2022/01/22 00:00:17;;;;;;;;;;;;;;;;;;;;;
2022/01/22 00:06:01;;;;;;;;;;;;;;;;;;;;;
2022/01/22 00:12:40;;;;;;;19.25;9.00;;;3.30;99.90;;;;;;5921111;24;20005;-89
2022/01/22 00:19:30;;;;;;;;;;;;;;;;;;;;;
2022/01/22 00:25:20;;;;;;;;;;;;;;;;;;;;;
2022/01/22 00:38:07;;;;;;;;;;;;;;;;;;;;;
2022/01/22 00:41:19;;;;;;;;;;;;;;;;;;;;;
2022/01/22 00:43:56;;;;;;;15.00;9.10;;;1.30;98.00;;;;;;6111682;23;20124;-90
2022/01/22 00:52:37;;;;;;;24.70;11.43;;;1.20;96.50;;;;;;6020275;23;20007;-90
2022/01/22 00:55:23;;;;;;;14.07;9.70;;;2.40;98.50;;;;;;6126811;23;20004;-90
2022/01/22 00:58:10;;;;;;;;;;;;;;;;;;;;;
2022/01/22 01:00:50;;;;;;;20.83;10.98;;;1.10;96.90;;;;;;6214251;23;20431;-90
2022/01/22 01:04:04;;;;;;;;;;;;;;;;;;;;;
2022/01/22 01:06:36;;;;;;;21.55;11.68;;;;;;;;;;6243019;23;20551;-89
2022/01/22 01:09:36;;;;;;;;;;;;;;;;;;;;;
2022/01/22 01:12:16;;;;;;;;;;;;;;;;;;;;;
2022/01/22 01:36:40;;;;;;;21.60;9.38;;;1.10;99.90;;;;;;6099408;23;20068;-91
2022/01/22 01:39:32;;;;;;;12.02;8.90;;;1.00;99.90;;;;;;6126384;23;20021;-90
2022/01/22 01:43:01;;;;;;;;;;;;;;;;;;;;;
2022/01/22 01:46:07;;;;;;;;;;;;;;;;;;;;;
2022/01/22 01:49:12;;;;;;;;;;;;;;;;;;;;;
2022/01/22 01:52:36;;;;;;;;;;;;;;;;;;;;;
2022/01/22 01:58:16;;;;;;;;;;;;;;;;;;;;;
2022/01/22 02:01:11;;;;;;;;;;;;;;;;;;;;;
2022/01/22 02:04:07;;;;;;;;;;;;;;;;;;;;;
2022/01/22 02:06:57;;;;;;;13.65;8.07;;;1.00;98.40;;;;;;6247525;23;20047;-89
2022/01/22 02:09:34;;;;;;;14.07;8.40;;;1.60;99.90;;;;;;6140793;23;20337;-90
2022/01/22 02:24:32;;;;;;;11.50;7.35;;;1.40;99.90;;;;;;6181144;23;20024;-90
2022/01/22 02:27:26;;;;;;;17.42;7.90;;;1.50;99.90;;;;;;6154977;23;20071;-89
2022/01/22 02:30:06;;;;;;;;;;;;;;;;;;;;;
2022/01/22 02:35:26;;;;;;;12.05;7.40;;;;;;;;;;6242824;23;20447;-90
2022/01/22 02:38:03;;;;;;;12.40;6.75;;;1.60;99.70;;;;;;6215667;23;20011;-90
2022/01/22 02:41:23;;;;;;;;;;;;;;;;;;;;;
2022/01/22 02:47:37;;;;;;;;;;;;;;;;;;;;;
2022/01/22 02:50:23;;;;;;;;;;;;;;;;;;;;;
2022/01/22 02:52:52;;;;;;;12.05;6.70;;;3.30;99.90;;;;;;6221240;23;20007;-90
2022/01/22 02:55:45;;;;;;;12.90;6.80;;;3.40;99.90;;;;;;6215720;23;20024;-93
2022/01/22 02:59:23;;;;;;;;;;;;;;;;;;;;;
2022/01/22 03:01:50;;;;;;;;;;;;;;;;;;;;;
2022/01/22 03:04:34;;;;;;;12.55;7.05;;;2.20;99.80;;;;;;6242236;23;20079;-89
2022/01/22 03:07:13;;;;;;;12.30;6.85;;;2.20;99.90;;;;;;6215213;23;20019;-91
2022/01/22 03:10:04;;;;;;;10.80;6.30;;;2.30;99.90;;;;;;6216434;23;20004;-91
2022/01/22 03:13:44;;;;;;;;;;;;;;;;;;;;;
2022/01/22 03:20:17;;;;;;;12.20;6.07;;;2.40;99.90;;;;;;6121333;23;19998;-91
2022/01/22 03:28:40;;;;;;;;;;;;;;;;;;;;;
2022/01/22 03:31:42;;;;;;;;;;;;;;;;;;;;;
2022/01/22 03:34:47;;;;;;;;;;;;;;;;;;;;;
2022/01/22 03:37:42;;;;;;;13.77;7.10;;;3.80;99.90;;;;;;6120841;23;20092;-91
2022/01/22 03:47:30;;;;;;;12.68;6.50;;;3.80;99.90;;;;;;6025268;23;20011;-90
2022/01/22 03:50:28;;;;;;;;;;;;;;;;;;;;;
2022/01/22 03:53:32;;;;;;;;;;;;;;;;;;;;;
2022/01/22 03:59:36;;;;;;;16.70;8.07;;;1.50;99.90;;;;;;5969771;24;20041;-91
2022/01/22 04:05:20;;;;;;;13.90;7.18;;;2.70;99.90;;;;;;6242180;23;20341;-90
2022/01/22 04:11:29;;;;;;;;;;;;;;;;;;;;;
2022/01/22 04:14:43;;;;;;;15.82;8.15;;;2.90;99.90;;;;;;6149364;23;20072;-91
2022/01/22 04:17:34;;;;;;;;;;;;;;;;;;;;;
2022/01/22 04:30:08;;;;;;;13.63;7.53;;;2.80;99.90;;;;;;6064600;23;20321;-89
2022/01/22 04:33:10;;;;;;;;;;;;;;;;;;;;;
2022/01/22 04:38:48;;;;;;;;;;;;;;;;;;;;;
2022/01/22 04:41:38;;;;;;;;;;;;;;;;;;;;;
2022/01/22 05:10:08;;;;;;;;;;;;;;;;;;;;;
2022/01/22 05:12:37;;;;;;;10.15;6.47;;;;;;;;;;6200491;23;20507;-91
2022/01/22 05:15:12;;;;;;;13.02;6.80;;;3.00;99.90;;;;;;6216415;23;20004;-90
2022/01/22 05:17:42;;;;;;;11.45;6.80;;;3.00;99.90;;;;;;6216243;23;20087;-89
2022/01/22 05:20:32;;;;;;;13.15;7.03;;;3.00;99.90;;;;;;6216170;23;20077;-89
2022/01/22 05:23:06;;;;;;;9.23;6.50;;;;;;;;;;6216096;23;20429;-88
2022/01/22 05:25:37;;;;;;;8.20;6.38;;;3.10;99.90;;;;;;6216670;23;20008;-88
2022/01/22 05:28:46;;;;;;;9.57;6.45;;;4.30;99.90;;;;;;6216142;23;20036;-89
2022/01/22 05:39:14;;;;;;;10.98;4.68;;;3.30;99.90;;;;;;6243861;23;20061;-92
2022/01/22 05:41:41;;;;;;;7.47;4.80;;;;;;;;;;6216948;23;20034;-92
2022/01/22 05:44:07;;;;;;;14.05;4.30;;;3.30;99.90;;;;;;6243116;23;20031;-89
2022/01/22 05:47:05;;;;;;;;;;;;;;;;;;;;;
2022/01/22 05:49:38;;;;;;;10.57;4.20;;;3.50;99.90;;;;;;6243264;23;20501;-90
2022/01/22 05:52:06;;;;;;;6.57;3.97;;;4.60;99.90;;;;;;6216209;23;20050;-91
2022/01/22 05:55:06;;;;;;;11.65;4.53;;;3.60;99.90;;;;;;6216725;23;20004;-90
2022/01/22 06:00:41;;;;;;;7.45;3.95;;;3.70;99.80;;;;;;6244106;23;20498;-90
2022/01/22 06:03:07;;;;;;;12.23;4.22;;;;;;;;;;6200376;23;20012;-88
2022/01/22 06:05:40;;;;;;;9.95;3.83;;;3.70;99.60;;;;;;6216831;23;20075;-92
2022/01/22 06:08:18;;;;;;;;;;;;;;;;;;;;;
2022/01/22 06:10:47;;;;;;;;;;;3.80;99.90;;;;;;6244572;23;20079;-90
2022/01/22 06:13:20;;;;;;;8.73;4.05;;;;;;;;;;6217013;23;19903;-90
2022/01/22 06:15:53;;;;;;;7.80;3.65;;;3.70;99.80;;;;;;6217174;23;20000;-89
2022/01/22 06:18:21;;;;;;;6.75;3.83;;;3.70;99.90;;;;;;6216171;23;20011;-94
2022/01/22 06:20:50;;;;;;;14.68;8.68;;;3.80;99.90;;;;;;6216030;23;20469;-90
2022/01/22 06:23:15;;;;;;;;;;;3.90;99.90;;;;;;6217335;23;20008;-91
2022/01/22 06:25:44;;;;;;;28.88;6.00;;;;;;;;;;6216917;23;19974;-90
2022/01/22 06:28:10;;;;;;;9.10;5.20;;;3.80;99.90;;;;;;6216103;23;20008;-91
2022/01/22 06:30:35;;;;;;;7.97;4.60;;;4.50;99.90;;;;;;6215868;23;20186;-89
2022/01/22 06:33:01;;;;;;;10.15;5.07;;;3.80;99.90;;;;;;6215651;23;20385;-91
2022/01/22 06:35:27;;;;;;;9.50;5.50;;;;;;;;;;6216058;23;20030;-90
2022/01/22 06:37:59;;;;;;;10.85;5.55;;;3.90;99.90;;;;;;6215603;23;20008;-91
2022/01/22 06:42:50;;;;;;;11.48;5.00;;;3.90;99.90;;;;;;6242863;23;20091;-91
2022/01/22 06:45:16;;;;;;;8.05;5.30;;;3.80;99.90;;;;;;6216541;23;20000;-88
2022/01/22 06:47:42;;;;;;;7.38;5.68;;;3.70;99.90;;;;;;6216443;23;20067;-90
2022/01/22 06:50:08;;;;;;;11.18;6.05;;;3.60;99.90;;;;;;6215701;23;20004;-91
2022/01/22 06:52:34;;;;;;;10.75;5.80;;;3.50;99.90;;;;;;6215587;23;20046;-91
2022/01/22 06:55:02;;;;;;;8.13;6.10;;;;;;;;;;6215391;23;20070;-89
2022/01/22 06:57:40;;;;;;;10.00;6.40;;;3.40;99.50;;;;;;6215798;23;20005;-90
2022/01/22 07:00:08;;;;;;;11.05;6.20;;;3.80;99.90;;;;;;6215513;23;20186;-89
2022/01/22 07:02:34;;;;;;;12.57;7.10;;;;;;;;;;6215805;23;20000;-89
2022/01/22 07:05:00;;;;;;;13.63;6.57;;;3.30;99.50;;;;;;6215053;23;20341;-89
2022/01/22 07:07:26;;;;;;;14.38;6.90;;;;;;;;;;6215339;23;20012;-88
2022/01/22 07:09:52;;;;;;;12.77;7.20;;;3.30;99.40;;;;;;6219178;23;20000;-88
2022/01/22 07:12:17;;;;;;;14.73;7.78;;;3.20;99.90;;;;;;6219476;23;20008;-88
2022/01/22 07:14:45;;;;;;;14.27;6.88;;;;;;;;;;6221993;23;20039;-89
2022/01/22 07:17:12;;;;;;;13.03;7.20;;;3.00;99.90;;;;;;6217862;23;20360;-89
2022/01/22 07:19:41;;;;;;;16.08;8.38;;;3.10;99.90;;;;;;6215277;23;20000;-89
2022/01/22 07:22:29;;;;;;;;;;;3.20;99.90;;;;;;6215673;23;20019;-89
2022/01/22 07:24:52;;;;;;;11.68;7.32;;;3.10;99.90;;;;;;6241392;23;20346;-88
2022/01/22 07:27:25;;;;;;;13.45;7.28;;;3.10;99.90;;;;;;6215374;23;20012;-92
2022/01/22 07:30:04;;;;;;;11.70;6.60;;;3.90;99.90;;;;;;6215292;23;20000;-89
2022/01/22 07:32:43;;;;;;;11.68;6.93;;;3.10;99.90;;;;;;6215156;23;20004;-88
2022/01/22 07:35:09;;;;;;;;;;;3.10;99.90;;;;;;6216725;23;20011;-89
2022/01/22 07:37:38;;;;;;;12.75;6.65;;;3.20;99.90;;;;;;6215417;23;19900;-88
2022/01/22 07:40:11;;;;;;;12.13;6.63;;;3.20;99.90;;;;;;6214600;23;20008;-90
2022/01/22 07:42:39;;;;;;;10.75;6.65;;;;;;;;;;6215619;23;20000;-89
2022/01/22 07:45:06;;;;;;;11.02;6.15;;;3.30;99.90;;;;;;6215159;23;20352;-88
2022/01/22 07:47:34;;;;;;;13.65;6.82;;;3.20;99.90;;;;;;6215854;23;20012;-88
2022/01/22 07:50:05;;;;;;;10.85;6.80;;;3.30;99.90;;;;;;6215090;23;20000;-89
2022/01/22 07:52:41;;;;;;;;;;;;;;;;;;;;;
2022/01/22 07:55:28;;;;;;;10.30;6.03;;;3.40;99.90;;;;;;6241724;23;20091;-89
2022/01/22 07:58:10;;;;;;;10.80;5.82;;;3.40;99.90;;;;;;6214790;23;20046;-89
2022/01/22 08:00:41;;;;;;;12.05;6.32;;;3.50;99.90;;;;;;6214946;23;20385;-89
2022/01/22 08:03:08;;;;;;;12.85;6.25;;;3.70;99.90;;;;;;6214280;23;20022;-88
2022/01/22 08:05:44;;;;;;;10.23;6.60;;;3.80;99.90;;;;;;6209863;23;20011;-88
2022/01/22 08:08:09;;;;;;;12.38;6.47;;;3.60;99.90;;;;;;6209610;23;20017;-87
2022/01/22 08:10:35;;;;;;;28.05;13.18;;;4.10;99.90;;;;;;6209981;23;20536;-89
2022/01/22 08:13:01;;;;;;;23.27;13.05;;;3.60;99.90;;;;;;6209647;23;20426;-88
2022/01/22 08:15:27;;;;;;;15.50;7.43;;;;;;;;;;6209751;23;20070;-88
2022/01/22 08:17:53;;;;;;;19.23;8.82;;;3.60;99.90;;;;;;6209173;23;20028;-89
2022/01/22 08:20:21;;;;;;;18.65;9.15;;;;;;;;;;6209792;23;20008;-88
2022/01/22 08:22:48;;;;;;;25.67;13.45;;;3.70;99.90;;;;;;6209105;23;20021;-88
2022/01/22 08:25:14;;;;;;;21.88;10.57;;;4.10;99.90;;;;;;6210851;23;20028;-88
2022/01/22 08:31:25;;;;;;;34.50;14.27;;;3.70;99.90;;;;;;6211000;23;20027;-89
2022/01/22 08:38:24;;;;;;;;;;;;;;;;;;;;;
2022/01/22 08:40:39;;;;;;;24.33;9.18;;;4.00;99.90;;;;;;6202126;23;20009;-90
2022/01/22 08:43:07;;;;;;;12.73;7.13;;;4.60;99.90;;;;;;6208157;23;20405;-89
2022/01/22 08:45:33;;;;;;;;;;;4.10;99.90;;;;;;6209385;23;20140;-88
2022/01/22 08:47:59;;;;;;;;;;;4.00;99.90;;;;;;6209256;23;20380;-94
2022/01/22 08:50:35;;;;;;;;;;;4.10;99.90;;;;;;6209969;23;20372;-90
2022/01/22 08:53:19;;;;;;;;;;;4.20;99.90;;;;;;6215600;23;19904;-88
2022/01/22 08:55:44;;;;;;;;;;;4.40;99.90;;;;;;6211012;23;19908;-86
2022/01/22 08:58:10;;;;;;;12.23;6.90;;;4.20;99.90;;;;;;6232747;23;20754;-91
2022/01/22 09:00:37;;;;;;;17.63;7.00;;;5.20;99.90;;;;;;6207453;23;20631;-89
2022/01/22 09:03:04;;;;;;;10.15;6.72;;;4.20;99.90;;;;;;6209187;23;20353;-90
2022/01/22 09:05:34;;;;;;;13.77;6.78;;;4.20;99.90;;;;;;6208010;23;20013;-87
2022/01/22 09:08:00;;;;;;;12.48;6.43;;;4.20;99.90;;;;;;6207718;23;20016;-86
2022/01/22 09:10:26;;;;;;;17.15;7.03;;;4.30;99.90;;;;;;6209203;23;20001;-86
2022/01/22 09:12:51;;;;;;;13.15;6.75;;;4.40;99.90;;;;;;6209833;23;20011;-90
2022/01/22 09:15:17;;;;;;;10.57;5.97;;;4.40;99.90;;;;;;6210536;23;20087;-87
2022/01/22 09:17:53;;;;;;;13.43;8.48;;;4.40;99.90;;;;;;6211786;23;20456;-89
2022/01/22 09:20:42;;;;;;;21.42;8.70;;;4.50;99.90;;;;;;6211373;23;20000;-90
2022/01/22 09:23:06;;;;;;;17.42;7.35;;;4.60;99.90;;;;;;6212361;23;20005;-88
2022/01/22 09:25:32;;;;;;;16.42;8.55;;;3.30;99.90;;;;;;6212376;23;20441;-88
2022/01/22 09:27:58;;;;;;;12.43;7.00;;;4.70;99.90;;;;;;6209482;23;20091;-92
2022/01/22 09:30:23;;;;;;;11.40;6.70;;;4.70;99.90;;;;;;6208823;23;20381;-89
2022/01/22 09:32:49;;;;;;;18.17;8.70;;;4.70;99.90;;;;;;6211703;23;20005;-91
2022/01/22 09:35:15;;;;;;;17.02;10.27;;;4.80;99.90;;;;;;6212038;23;20008;-93
2022/01/22 09:37:42;;;;;;;21.05;11.45;;;4.80;99.90;;;;;;6211458;23;20448;-91
2022/01/22 09:40:09;;;;;;;25.20;11.88;;;4.90;99.90;;;;;;6204484;23;20004;-91
2022/01/22 09:42:35;;;;;;;14.32;7.97;;;4.90;99.90;;;;;;6208966;23;20000;-90
2022/01/22 09:45:03;;;;;;;14.80;6.63;;;4.90;99.90;;;;;;6211327;23;20008;-88
2022/01/22 09:47:29;;;;;;;15.48;6.60;;;;;;;;;;6220463;23;20024;-91
2022/01/22 09:49:55;;;;;;;10.57;6.53;;;5.00;99.70;;;;;;6221641;23;20009;-88
2022/01/22 09:52:22;;;;;;;20.83;7.38;;;5.00;99.80;;;;;;6223902;23;20428;-88
2022/01/22 09:54:57;;;;;;;15.13;7.55;;;5.00;99.90;;;;;;6216199;23;20008;-92
2022/01/22 09:57:33;;;;;;;14.65;7.88;;;5.10;99.90;;;;;;6213399;23;20005;-87
2022/01/22 09:59:58;;;;;;;15.32;7.13;;;5.10;99.90;;;;;;6211618;23;20091;-86
2022/01/22 10:02:25;;;;;;;11.57;7.20;;;;;;;;;;6211461;23;20481;-93
2022/01/22 10:04:52;;;;;;;11.32;6.70;;;5.20;99.90;;;;;;6205919;23;20013;-89
2022/01/22 10:07:24;;;;;;;13.63;7.10;;;5.30;99.90;;;;;;6205593;23;20109;-92
2022/01/22 10:09:57;;;;;;;18.40;7.57;;;5.30;99.90;;;;;;6208100;23;20005;-90
2022/01/22 10:12:25;;;;;;;14.35;7.40;;;5.40;99.90;;;;;;6208331;23;20365;-86
2022/01/22 10:15:14;;;;;;;16.60;7.93;;;5.40;99.90;;;;;;6207802;23;20005;-88
2022/01/22 10:17:48;;;;;;;19.45;9.82;;;5.50;99.90;;;;;;6206912;23;20005;-88
2022/01/22 10:20:32;;;;;;;21.38;8.20;;;5.60;99.90;;;;;;6209063;23;20449;-86
2022/01/22 10:23:09;;;;;;;14.73;7.85;;;5.60;99.90;;;;;;6206628;23;20008;-88
2022/01/22 10:25:57;;;;;;;21.42;8.63;;;5.60;99.10;;;;;;6207331;23;20016;-88
2022/01/22 10:28:23;;;;;;;13.55;8.18;;;5.60;98.60;;;;;;6207109;23;20106;-88
2022/01/22 10:30:55;;;;;;;15.40;8.80;;;5.70;99.20;;;;;;6206442;23;20009;-88
2022/01/22 12:24:53;;;;;;;;;;;;;;;;;;;;;
2022/01/22 12:35:08;;;;;;;14.90;8.50;;;6.60;94.30;;;;;;5744045;25;20013;-90
2022/01/22 16:37:36;;;;;;;27.83;16.48;;;6.30;95.60;;;;;;5973405;24;20031;-92
2022/01/22 16:40:02;;;;;;;18.80;10.32;;;6.30;95.70;;;;;;6010684;23;20023;-89
2022/01/22 16:42:35;;;;;;;;;;;6.30;97.00;;;;;;6026085;23;20046;-89
2022/01/22 16:55:53;;;;;;;38.88;23.95;;;6.40;96.60;;;;;;6145043;23;20012;-88
2022/01/22 16:58:30;;;;;;;28.98;16.75;;;6.30;95.60;;;;;;6118380;23;20010;-88
2022/01/22 17:00:59;;;;;;;25.08;14.25;;;;;;;;;;6118235;23;20043;-90
2022/01/22 17:03:29;;;;;;;18.83;11.70;;;6.30;95.50;;;;;;6118555;23;20005;-91
2022/01/22 17:05:57;;;;;;;20.77;9.07;;;6.30;96.40;;;;;;6118658;23;20151;-90
2022/01/22 17:08:31;;;;;;;16.67;8.38;;;6.20;96.20;;;;;;6117252;23;20055;-88
2022/01/22 17:11:25;;;;;;;19.83;9.55;;;6.20;96.20;;;;;;6118529;23;20008;-93
2022/01/22 17:14:14;;;;;;;19.80;9.25;;;6.10;95.80;;;;;;6118556;23;20006;-90
2022/01/22 17:16:45;;;;;;;14.35;9.02;;;6.20;96.00;;;;;;6118215;23;20021;-90
2022/01/22 17:19:12;;;;;;;17.10;9.75;;;;;;;;;;6118775;23;20105;-88
2022/01/22 17:21:38;;;;;;;19.52;12.10;;;;;;;;;;6116592;23;20021;-89
2022/01/22 17:24:04;;;;;;;17.08;9.73;;;6.20;96.20;;;;;;6117676;23;20323;-87
2022/01/22 17:26:29;;;;;;;18.15;10.10;;;6.20;95.90;;;;;;6117880;23;20039;-89
2022/01/22 17:28:55;;;;;;;236.18;93.75;;;6.20;96.30;;;;;;6143317;23;20006;-89
2022/01/22 17:31:26;;;;;;;80.45;33.17;;;6.10;96.10;;;;;;6117490;23;20037;-89
2022/01/22 17:33:52;;;;;;;83.80;43.15;;;;;;;;;;6117106;23;20082;-87
2022/01/22 17:36:21;;;;;;;18.45;10.18;;;6.20;96.10;;;;;;6116958;23;20442;-88
2022/01/22 17:38:47;;;;;;;24.05;13.75;;;;;;;;;;6116745;23;20006;-88
2022/01/22 17:41:16;;;;;;;20.00;10.25;;;6.10;96.10;;;;;;6117873;23;20044;-88
2022/01/22 17:43:43;;;;;;;56.38;36.33;;;6.10;96.70;;;;;;6117656;23;20063;-88
2022/01/22 17:46:09;;;;;;;61.00;40.83;;;6.10;96.60;;;;;;6117001;23;20009;-85
2022/01/22 17:48:36;;;;;;;33.15;20.30;;;6.10;96.70;;;;;;6119474;23;20085;-89
2022/01/22 17:51:49;;;;;;;45.50;27.88;;;6.10;96.60;;;;;;6119622;23;20053;-93
2022/01/22 17:54:24;;;;;;;38.10;21.65;;;6.00;96.50;;;;;;6120934;23;20009;-91
2022/01/22 17:56:50;;;;;;;37.50;22.77;;;6.10;96.70;;;;;;6119415;23;20441;-89
2022/01/22 17:59:16;;;;;;;23.80;12.95;;;6.10;96.80;;;;;;6120207;23;20012;-90
2022/01/22 18:01:42;;;;;;;19.38;12.45;;;6.10;97.00;;;;;;6119709;23;20372;-89
2022/01/22 18:04:08;;;;;;;15.35;10.20;;;6.00;96.80;;;;;;6119274;23;20009;-89
2022/01/22 18:06:37;;;;;;;18.65;10.65;;;5.90;97.30;;;;;;6119454;23;20511;-88
2022/01/22 18:09:05;;;;;;;18.17;10.98;;;5.90;97.10;;;;;;6119193;23;20015;-92
2022/01/22 18:11:32;;;;;;;25.85;15.63;;;6.00;96.90;;;;;;6119416;23;20009;-88
2022/01/22 18:14:00;;;;;;;24.30;10.43;;;;;;;;;;6119673;23;20010;-92
2022/01/22 18:16:26;;;;;;;20.65;11.88;;;6.00;96.50;;;;;;6119359;23;20047;-88
2022/01/22 18:18:52;;;;;;;30.77;18.52;;;6.00;97.10;;;;;;6145048;23;20006;-88
2022/01/22 18:21:18;;;;;;;21.65;15.00;;;6.00;97.20;;;;;;6119020;23;20021;-89
2022/01/22 18:23:43;;;;;;;85.80;49.95;;;6.00;97.20;;;;;;6121249;23;20002;-89
2022/01/22 18:26:09;;;;;;;24.05;12.10;;;6.00;96.90;;;;;;6121838;23;20059;-91
2022/01/22 18:28:35;;;;;;;25.98;11.18;;;6.00;97.10;;;;;;6147995;23;20448;-89
2022/01/22 18:31:01;;;;;;;40.17;22.95;;;5.90;97.10;;;;;;6121871;23;20088;-90
2022/01/22 18:33:29;;;;;;;17.10;11.88;;;6.00;97.10;;;;;;6122096;23;20040;-91
2022/01/22 18:35:57;;;;;;;24.27;10.57;;;6.00;97.00;;;;;;6121856;23;20010;-88
2022/01/22 18:38:26;;;;;;;24.90;13.35;;;6.00;97.20;;;;;;6122154;23;20002;-89
2022/01/22 18:40:52;;;;;;;19.10;11.43;;;6.00;96.90;;;;;;6122278;23;20041;-88
2022/01/22 18:43:21;;;;;;;37.97;24.55;;;;;;;;;;6121410;23;20059;-89
2022/01/22 18:45:51;;;;;;;21.67;12.80;;;6.00;96.70;;;;;;6121439;23;20088;-90
2022/01/22 18:48:20;;;;;;;28.27;18.10;;;6.00;97.10;;;;;;6121463;23;20009;-88
2022/01/22 18:50:49;;;;;;;62.58;37.92;;;6.00;96.90;;;;;;6120898;23;20446;-88
2022/01/22 18:53:21;;;;;;;60.33;32.45;;;6.00;97.00;;;;;;6120842;23;20001;-86
2022/01/22 18:55:50;;;;;;;66.85;36.45;;;5.90;97.10;;;;;;6116177;23;20016;-92
2022/01/22 18:58:16;;;;;;;84.90;46.17;;;5.80;97.40;;;;;;6119201;23;20006;-87
2022/01/22 19:00:45;;;;;;;62.08;34.13;;;5.90;97.40;;;;;;6144338;23;20018;-88
2022/01/22 19:03:11;;;;;;;49.17;30.95;;;5.90;97.40;;;;;;6118678;23;20029;-88
2022/01/22 19:05:37;;;;;;;19.52;11.90;;;5.90;97.40;;;;;;6117823;23;20009;-88
2022/01/22 19:08:03;;;;;;;18.55;12.02;;;5.90;97.40;;;;;;6117678;23;20513;-87
2022/01/22 19:10:29;;;;;;;21.00;12.80;;;5.80;97.40;;;;;;6118073;23;20017;-88
2022/01/22 19:12:55;;;;;;;23.27;11.60;;;5.90;97.60;;;;;;6145700;23;20002;-88
2022/01/22 19:15:20;;;;;;;44.15;23.02;;;5.80;97.60;;;;;;6120471;23;20013;-87
2022/01/22 19:17:46;;;;;;;32.15;18.50;;;5.80;97.60;;;;;;6146287;23;20006;-87
2022/01/22 19:20:15;;;;;;;23.40;12.80;;;5.80;97.80;;;;;;6146576;23;20005;-87
2022/01/22 19:30:19;;;;;;;26.30;13.40;;;5.90;97.80;;;;;;6146172;23;20013;-88
2022/01/22 19:32:45;;;;;;;24.55;14.20;;;5.80;97.80;;;;;;6121113;23;20009;-89
2022/01/22 19:35:11;;;;;;;23.23;13.90;;;5.90;97.90;;;;;;6120082;23;20241;-88
2022/01/22 19:37:39;;;;;;;120.63;71.95;;;5.80;97.70;;;;;;6119740;23;20014;-87
2022/01/22 19:40:08;;;;;;;89.70;48.97;;;5.90;97.90;;;;;;6145293;23;20021;-88
2022/01/22 19:42:39;;;;;;;23.80;12.43;;;5.90;97.60;;;;;;6119737;23;20051;-89
2022/01/22 19:45:08;;;;;;;21.38;12.77;;;5.90;97.60;;;;;;6119382;23;20005;-86
2022/01/22 19:47:35;;;;;;;47.42;23.77;;;5.90;97.60;;;;;;6120111;23;20002;-86
2022/01/22 19:50:01;;;;;;;25.92;13.40;;;5.90;97.60;;;;;;6145142;23;20013;-88
2022/01/22 19:52:27;;;;;;;23.05;14.93;;;5.90;97.70;;;;;;6120450;23;20101;-87
2022/01/22 19:54:53;;;;;;;21.13;11.90;;;5.90;98.00;;;;;;6119880;23;20005;-87
2022/01/22 19:57:19;;;;;;;26.38;14.32;;;5.90;97.70;;;;;;6119336;23;20016;-87
2022/01/22 19:59:46;;;;;;;33.88;17.52;;;5.90;97.80;;;;;;6120705;23;20018;-89
2022/01/22 20:02:14;;;;;;;26.33;13.82;;;5.90;97.70;;;;;;6142073;23;20008;-86
2022/01/22 20:04:45;;;;;;;31.42;17.85;;;5.80;97.90;;;;;;6114063;23;20063;-87
2022/01/22 20:07:11;;;;;;;29.13;13.85;;;5.80;98.10;;;;;;6113717;23;20491;-87
2022/01/22 20:09:37;;;;;;;28.15;17.77;;;5.80;98.20;;;;;;6114828;23;20066;-87
2022/01/22 20:12:03;;;;;;;31.23;16.88;;;5.70;98.30;;;;;;6116858;23;20016;-87
2022/01/22 20:14:29;;;;;;;27.50;16.52;;;5.80;98.50;;;;;;6116631;23;20016;-87
2022/01/22 20:16:55;;;;;;;24.30;15.90;;;;;;;;;;6115627;23;20005;-87
2022/01/22 20:19:21;;;;;;;29.38;17.42;;;5.80;98.00;;;;;;6119296;23;20045;-86
2022/01/22 20:21:47;;;;;;;24.10;14.70;;;5.90;98.20;;;;;;6145747;23;20395;-87
2022/01/22 20:24:13;;;;;;;22.13;15.57;;;5.90;98.20;;;;;;6146988;23;19997;-87
2022/01/22 20:26:39;;;;;;;34.95;15.60;;;5.80;98.20;;;;;;6117147;23;20010;-86
2022/01/22 20:29:07;;;;;;;22.70;14.82;;;5.80;98.30;;;;;;6144713;23;19998;-88
2022/01/22 20:31:34;;;;;;;31.02;18.60;;;5.80;98.20;;;;;;6144958;23;20329;-86
2022/01/22 20:34:00;;;;;;;24.23;15.30;;;5.80;98.10;;;;;;6118508;23;20013;-90
2022/01/22 20:36:26;;;;;;;31.33;16.60;;;5.90;98.40;;;;;;6146709;23;20010;-86
2022/01/22 20:38:52;;;;;;;26.27;14.18;;;5.80;98.50;;;;;;6119903;23;20005;-88
2022/01/22 20:41:24;;;;;;;26.35;18.58;;;4.90;98.70;;;;;;6121141;23;20023;-89
2022/01/22 20:43:57;;;;;;;26.38;13.55;;;5.80;97.70;;;;;;6146480;23;20054;-87
2022/01/22 20:46:23;;;;;;;25.65;14.95;;;4.20;99.90;;;;;;6146562;23;20001;-86
2022/01/22 20:48:49;;;;;;;26.98;16.30;;;8.50;99.90;;;;;;6146267;23;20051;-86
2022/01/22 20:51:15;;;;;;;31.10;17.10;;;;;;;;;;6147575;23;20430;-86
2022/01/22 20:53:42;;;;;;;48.70;27.33;;;5.70;98.60;;;;;;6121086;23;20384;-86
2022/01/22 20:56:08;;;;;;;30.80;18.38;;;;;;;;;;6146271;23;20009;-88
2022/01/22 20:58:35;;;;;;;35.25;21.73;;;7.20;99.90;;;;;;6121211;23;20006;-87
2022/01/22 21:01:06;;;;;;;26.85;16.73;;;7.50;99.90;;;;;;6120230;23;20087;-87
2022/01/22 21:03:33;;;;;;;30.95;15.82;;;7.60;99.90;;;;;;6119478;23;20033;-87
2022/01/22 21:05:58;;;;;;;33.42;16.50;;;3.10;99.90;;;;;;6120724;23;20505;-87
2022/01/22 21:08:27;;;;;;;26.85;16.33;;;4.80;99.90;;;;;;6146623;23;20032;-86
2022/01/22 21:10:53;;;;;;;43.28;26.63;;;4.30;99.90;;;;;;6146466;23;20082;-86
2022/01/22 21:13:21;;;;;;;46.05;29.27;;;;;;;;;;6146002;23;20029;-87
2022/01/22 21:15:47;;;;;;;43.13;23.08;;;4.10;99.90;;;;;;6121670;23;20085;-87
2022/01/22 21:18:14;;;;;;;31.08;20.27;;;5.80;99.90;;;;;;6121623;23;20009;-87
2022/01/22 21:20:41;;;;;;;40.53;24.13;;;5.60;99.90;;;;;;6120669;23;20009;-87
2022/01/22 21:23:06;;;;;;;44.33;26.80;;;5.70;99.90;;;;;;6147708;23;20012;-87
2022/01/22 21:25:32;;;;;;;30.42;21.67;;;7.90;99.90;;;;;;6147916;23;20333;-87
2022/01/22 21:27:58;;;;;;;36.15;23.05;;;8.10;99.90;;;;;;6122352;23;20012;-87
2022/01/22 21:30:24;;;;;;;32.10;17.50;;;7.90;99.90;;;;;;6122288;23;20010;-86
2022/01/22 21:32:50;;;;;;;33.08;17.92;;;4.80;99.90;;;;;;6148077;23;20452;-87
2022/01/22 21:35:17;;;;;;;27.05;17.88;;;5.70;99.90;;;;;;6148795;23;20076;-87
2022/01/22 21:40:18;;;;;;;57.42;33.90;;;7.60;99.90;;;;;;6147815;23;20024;-85
2022/01/22 21:42:44;;;;;;;70.00;38.05;;;;;;;;;;6147689;23;20005;-86
2022/01/22 21:45:11;;;;;;;31.67;20.92;;;6.80;99.90;;;;;;6146344;23;20025;-85
2022/01/22 21:47:37;;;;;;;48.55;29.95;;;6.80;99.90;;;;;;6146883;23;20001;-86
2022/01/22 21:50:07;;;;;;;38.75;22.35;;;8.20;99.90;;;;;;6120785;23;20446;-86
2022/01/22 21:52:33;;;;;;;59.22;37.95;;;3.20;99.90;;;;;;6146554;23;20023;-86
2022/01/22 21:54:59;;;;;;;31.30;19.98;;;3.20;99.90;;;;;;6120768;23;20006;-87
2022/01/22 21:57:27;;;;;;;42.70;21.60;;;7.20;99.90;;;;;;6146569;23;20012;-85
2022/01/22 21:59:53;;;;;;;43.03;24.30;;;5.60;99.90;;;;;;6120791;23;20010;-88
2022/01/22 22:02:19;;;;;;;35.95;20.73;;;5.40;99.90;;;;;;6121726;23;20093;-85
2022/01/22 22:04:45;;;;;;;36.22;20.67;;;5.50;99.90;;;;;;6121785;23;20086;-85
2022/01/22 22:07:12;;;;;;;34.53;21.33;;;;;;;;;;6146648;23;20041;-85
2022/01/22 22:09:38;;;;;;;34.65;21.30;;;5.70;99.90;;;;;;6146587;23;20566;-86
2022/01/22 22:12:04;;;;;;;32.83;20.77;;;2.80;99.90;;;;;;6120567;23;20009;-85
2022/01/22 22:14:30;;;;;;;31.15;21.13;;;;;;;;;;6120745;23;20447;-85
2022/01/22 22:16:58;;;;;;;39.60;22.05;;;3.00;99.90;;;;;;6120655;23;20006;-86
2022/01/22 22:19:23;;;;;;;30.52;20.38;;;7.90;99.90;;;;;;6120843;23;20485;-85
2022/01/22 22:21:49;;;;;;;30.10;19.17;;;;;;;;;;6120096;23;20014;-87
2022/01/22 22:24:15;;;;;;;30.60;20.33;;;5.50;99.90;;;;;;6121199;23;20081;-86
2022/01/22 22:26:41;;;;;;;41.42;24.27;;;4.00;99.90;;;;;;6116820;23;20399;-87
2022/01/22 22:29:07;;;;;;;32.65;20.25;;;3.10;99.90;;;;;;6145760;23;20342;-87
2022/01/22 22:31:32;;;;;;;30.05;19.80;;;2.80;99.90;;;;;;6145882;23;20002;-87
2022/01/22 22:33:59;;;;;;;40.00;22.20;;;7.20;99.90;;;;;;6145651;23;20009;-87
2022/01/22 22:36:26;;;;;;;32.47;20.95;;;2.90;99.90;;;;;;6120094;23;20008;-86
2022/01/22 22:38:53;;;;;;;176.57;80.70;;;3.00;99.90;;;;;;6145965;23;20037;-85
2022/01/22 22:41:23;;;;;;;43.22;27.08;;;4.90;99.90;;;;;;6119957;23;20018;-87
2022/01/22 22:43:49;;;;;;;45.67;29.15;;;;;;;;;;6146450;23;20055;-85
2022/01/22 22:46:16;;;;;;;45.35;26.85;;;5.40;99.90;;;;;;6147369;23;20014;-86
2022/01/22 22:48:42;;;;;;;41.88;27.45;;;5.50;99.90;;;;;;6125360;23;20005;-86
2022/01/22 22:51:08;;;;;;;44.92;31.40;;;6.80;99.90;;;;;;6125132;23;20304;-87
2022/01/22 22:53:35;;;;;;;55.13;37.13;;;7.90;99.90;;;;;;6146276;23;19997;-87
2022/01/22 22:56:01;;;;;;;38.42;25.70;;;4.30;99.90;;;;;;6120304;23;20014;-86
2022/01/22 22:58:30;;;;;;;37.25;21.75;;;5.60;99.90;;;;;;6120361;23;20006;-87
2022/01/22 23:00:58;;;;;;;;;;;5.90;99.90;;;;;;6146336;23;20020;-86
2022/01/22 23:03:27;;;;;;;34.17;21.42;;;6.80;99.90;;;;;;6145894;23;19905;-86
2022/01/22 23:05:55;;;;;;;29.60;20.02;;;4.00;99.90;;;;;;6119765;23;20009;-87
2022/01/22 23:08:22;;;;;;;36.85;23.83;;;4.30;99.90;;;;;;6119994;23;20009;-88
2022/01/22 23:10:49;;;;;;;41.20;27.08;;;3.20;99.90;;;;;;6120849;23;20013;-88